sensor_id;sensor_type;location;lat;lon;timestamp;temperature;humidity
947;DHT22;460;48.734;9.152;2023-11-18T00:00:54;5.40;99.90
947;DHT22;460;48.734;9.152;2023-11-18T00:03:21;5.30;99.90
947;DHT22;460;48.734;9.152;2023-11-18T00:05:47;5.30;99.90
947;DHT22;460;48.734;9.152;2023-11-18T00:08:14;5.30;99.90
947;DHT22;460;48.734;9.152;2023-11-18T00:10:42;5.30;99.90
947;DHT22;460;48.734;9.152;2023-11-18T00:13:09;5.40;99.90
947;DHT22;460;48.734;9.152;2023-11-18T00:15:36;5.40;99.90
947;DHT22;460;48.734;9.152;2023-11-18T00:18:03;5.40;99.90
947;DHT22;460;48.734;9.152;2023-11-18T00:20:31;5.40;99.90
947;DHT22;460;48.734;9.152;2023-11-18T00:22:57;5.40;99.90
947;DHT22;460;48.734;9.152;2023-11-18T00:25:24;5.30;99.90
947;DHT22;460;48.734;9.152;2023-11-18T00:27:53;5.30;99.90
947;DHT22;460;48.734;9.152;2023-11-18T00:30:20;5.30;99.90
947;DHT22;460;48.734;9.152;2023-11-18T00:32:47;5.30;99.90
947;DHT22;460;48.734;9.152;2023-11-18T00:35:15;5.30;99.90
947;DHT22;460;48.734;9.152;2023-11-18T00:37:44;5.30;99.90
947;DHT22;460;48.734;9.152;2023-11-18T00:40:11;5.20;99.90
947;DHT22;460;48.734;9.152;2023-11-18T00:42:38;5.30;99.90
947;DHT22;460;48.734;9.152;2023-11-18T00:45:07;5.30;99.90
947;DHT22;460;48.734;9.152;2023-11-18T00:47:34;5.30;99.90
947;DHT22;460;48.734;9.152;2023-11-18T00:50:01;5.30;99.90
947;DHT22;460;48.734;9.152;2023-11-18T00:52:28;5.30;99.90
947;DHT22;460;48.734;9.152;2023-11-18T00:54:55;5.30;99.90
947;DHT22;460;48.734;9.152;2023-11-18T00:57:22;5.30;99.90
947;DHT22;460;48.734;9.152;2023-11-18T00:59:49;5.40;99.90
947;DHT22;460;48.734;9.152;2023-11-18T01:02:17;5.40;99.90
947;DHT22;460;48.734;9.152;2023-11-18T01:04:45;5.40;99.90
947;DHT22;460;48.734;9.152;2023-11-18T01:07:15;5.40;99.90
947;DHT22;460;48.734;9.152;2023-11-18T01:09:44;5.40;99.90
947;DHT22;460;48.734;9.152;2023-11-18T01:12:12;5.50;99.90
947;DHT22;460;48.734;9.152;2023-11-18T01:14:41;5.50;99.90
947;DHT22;460;48.734;9.152;2023-11-18T01:17:10;5.50;99.90
947;DHT22;460;48.734;9.152;2023-11-18T01:19:41;5.50;99.90
947;DHT22;460;48.734;9.152;2023-11-18T01:22:10;5.50;99.90
947;DHT22;460;48.734;9.152;2023-11-18T01:24:37;5.50;99.90
947;DHT22;460;48.734;9.152;2023-11-18T01:27:04;5.60;99.90
947;DHT22;460;48.734;9.152;2023-11-18T01:29:33;5.50;99.90
947;DHT22;460;48.734;9.152;2023-11-18T01:32:00;5.50;99.90
947;DHT22;460;48.734;9.152;2023-11-18T01:34:31;5.40;99.90
947;DHT22;460;48.734;9.152;2023-11-18T01:37:01;5.40;99.90
947;DHT22;460;48.734;9.152;2023-11-18T01:39:28;5.40;99.90
947;DHT22;460;48.734;9.152;2023-11-18T01:41:55;5.50;99.90
947;DHT22;460;48.734;9.152;2023-11-18T01:44:24;5.40;99.90
947;DHT22;460;48.734;9.152;2023-11-18T01:46:53;5.50;99.90
947;DHT22;460;48.734;9.152;2023-11-18T01:49:22;5.50;99.90
947;DHT22;460;48.734;9.152;2023-11-18T01:51:50;5.40;99.90
947;DHT22;460;48.734;9.152;2023-11-18T01:54:19;5.40;99.90
947;DHT22;460;48.734;9.152;2023-11-18T01:56:49;5.50;99.90
947;DHT22;460;48.734;9.152;2023-11-18T01:59:17;5.50;99.90
947;DHT22;460;48.734;9.152;2023-11-18T02:01:46;5.60;99.90
947;DHT22;460;48.734;9.152;2023-11-18T02:04:15;5.50;99.90
947;DHT22;460;48.734;9.152;2023-11-18T02:06:45;5.50;99.90
947;DHT22;460;48.734;9.152;2023-11-18T02:09:13;5.50;99.90
947;DHT22;460;48.734;9.152;2023-11-18T02:11:48;5.50;99.90
947;DHT22;460;48.734;9.152;2023-11-18T02:14:20;5.50;99.90
947;DHT22;460;48.734;9.152;2023-11-18T02:16:52;5.40;99.90
947;DHT22;460;48.734;9.152;2023-11-18T02:19:21;5.40;99.90
947;DHT22;460;48.734;9.152;2023-11-18T02:21:50;5.40;99.90
947;DHT22;460;48.734;9.152;2023-11-18T02:24:26;5.50;99.90
947;DHT22;460;48.734;9.152;2023-11-18T02:26:58;5.60;99.90
947;DHT22;460;48.734;9.152;2023-11-18T02:29:31;5.50;99.90
947;DHT22;460;48.734;9.152;2023-11-18T02:32:09;5.60;99.90
947;DHT22;460;48.734;9.152;2023-11-18T02:34:43;5.50;99.90
947;DHT22;460;48.734;9.152;2023-11-18T02:37:15;5.50;99.90
947;DHT22;460;48.734;9.152;2023-11-18T02:39:45;5.40;99.90
947;DHT22;460;48.734;9.152;2023-11-18T02:42:20;5.40;99.90
947;DHT22;460;48.734;9.152;2023-11-18T02:44:51;5.50;99.90
947;DHT22;460;48.734;9.152;2023-11-18T02:47:25;5.40;99.90
947;DHT22;460;48.734;9.152;2023-11-18T02:49:56;5.40;99.90
947;DHT22;460;48.734;9.152;2023-11-18T02:52:30;5.50;99.90
947;DHT22;460;48.734;9.152;2023-11-18T02:54:57;5.40;99.90
947;DHT22;460;48.734;9.152;2023-11-18T02:57:25;5.30;99.90
947;DHT22;460;48.734;9.152;2023-11-18T02:59:53;5.30;99.90
947;DHT22;460;48.734;9.152;2023-11-18T03:02:19;5.30;99.90
947;DHT22;460;48.734;9.152;2023-11-18T03:04:46;5.20;99.90
947;DHT22;460;48.734;9.152;2023-11-18T03:07:13;5.10;99.90
947;DHT22;460;48.734;9.152;2023-11-18T03:09:40;5.10;99.90
947;DHT22;460;48.734;9.152;2023-11-18T03:12:07;5.10;99.90
947;DHT22;460;48.734;9.152;2023-11-18T03:14:35;4.90;99.90
947;DHT22;460;48.734;9.152;2023-11-18T03:17:04;4.90;99.90
947;DHT22;460;48.734;9.152;2023-11-18T03:19:32;4.70;99.90
947;DHT22;460;48.734;9.152;2023-11-18T03:22:01;4.70;99.90
947;DHT22;460;48.734;9.152;2023-11-18T03:24:29;4.70;99.90
947;DHT22;460;48.734;9.152;2023-11-18T03:26:56;4.60;99.90
947;DHT22;460;48.734;9.152;2023-11-18T03:29:24;4.50;99.90
947;DHT22;460;48.734;9.152;2023-11-18T03:31:53;4.40;99.90
947;DHT22;460;48.734;9.152;2023-11-18T03:34:21;4.40;99.90
947;DHT22;460;48.734;9.152;2023-11-18T03:36:49;4.30;99.90
947;DHT22;460;48.734;9.152;2023-11-18T03:39:17;4.20;99.90
947;DHT22;460;48.734;9.152;2023-11-18T03:41:45;4.30;99.90
947;DHT22;460;48.734;9.152;2023-11-18T03:44:12;4.30;99.90
947;DHT22;460;48.734;9.152;2023-11-18T03:46:39;4.30;99.90
947;DHT22;460;48.734;9.152;2023-11-18T03:49:08;4.40;99.90
947;DHT22;460;48.734;9.152;2023-11-18T03:51:35;4.40;99.90
947;DHT22;460;48.734;9.152;2023-11-18T03:54:02;4.40;99.90
947;DHT22;460;48.734;9.152;2023-11-18T03:56:29;4.40;99.90
947;DHT22;460;48.734;9.152;2023-11-18T03:58:56;4.40;99.90
947;DHT22;460;48.734;9.152;2023-11-18T04:01:25;4.30;99.90
947;DHT22;460;48.734;9.152;2023-11-18T04:03:53;4.20;99.90
947;DHT22;460;48.734;9.152;2023-11-18T04:06:21;4.20;99.90
947;DHT22;460;48.734;9.152;2023-11-18T04:08:50;4.20;99.90
947;DHT22;460;48.734;9.152;2023-11-18T04:11:17;4.20;99.90
947;DHT22;460;48.734;9.152;2023-11-18T04:13:44;4.40;99.90
947;DHT22;460;48.734;9.152;2023-11-18T04:16:11;4.40;99.90
947;DHT22;460;48.734;9.152;2023-11-18T04:18:39;4.40;99.90
947;DHT22;460;48.734;9.152;2023-11-18T04:21:06;4.30;99.90
947;DHT22;460;48.734;9.152;2023-11-18T04:23:36;4.40;99.90
947;DHT22;460;48.734;9.152;2023-11-18T04:26:03;4.30;99.90
947;DHT22;460;48.734;9.152;2023-11-18T04:28:30;4.30;99.90
947;DHT22;460;48.734;9.152;2023-11-18T04:30:57;4.30;99.90
947;DHT22;460;48.734;9.152;2023-11-18T04:33:24;4.20;99.90
947;DHT22;460;48.734;9.152;2023-11-18T04:35:51;4.30;99.90
947;DHT22;460;48.734;9.152;2023-11-18T04:38:18;4.30;99.90
947;DHT22;460;48.734;9.152;2023-11-18T04:40:46;4.30;99.90
947;DHT22;460;48.734;9.152;2023-11-18T04:43:13;4.30;99.90
947;DHT22;460;48.734;9.152;2023-11-18T04:45:40;4.40;99.90
947;DHT22;460;48.734;9.152;2023-11-18T04:48:08;4.30;99.90
947;DHT22;460;48.734;9.152;2023-11-18T04:50:35;4.40;99.90
947;DHT22;460;48.734;9.152;2023-11-18T04:53:02;4.40;99.90
947;DHT22;460;48.734;9.152;2023-11-18T04:55:30;4.40;99.90
947;DHT22;460;48.734;9.152;2023-11-18T04:57:58;4.60;99.90
947;DHT22;460;48.734;9.152;2023-11-18T05:00:24;4.50;99.90
947;DHT22;460;48.734;9.152;2023-11-18T05:02:51;4.50;99.90
947;DHT22;460;48.734;9.152;2023-11-18T05:05:18;4.60;99.90
947;DHT22;460;48.734;9.152;2023-11-18T05:07:45;4.60;99.90
947;DHT22;460;48.734;9.152;2023-11-18T05:10:12;4.60;99.90
947;DHT22;460;48.734;9.152;2023-11-18T05:12:39;4.60;99.90
947;DHT22;460;48.734;9.152;2023-11-18T05:15:08;4.60;99.90
947;DHT22;460;48.734;9.152;2023-11-18T05:17:35;4.60;99.90
947;DHT22;460;48.734;9.152;2023-11-18T05:20:02;4.60;99.90
947;DHT22;460;48.734;9.152;2023-11-18T05:22:29;4.60;99.90
947;DHT22;460;48.734;9.152;2023-11-18T05:24:56;4.60;99.90
947;DHT22;460;48.734;9.152;2023-11-18T05:27:23;4.50;99.90
947;DHT22;460;48.734;9.152;2023-11-18T05:29:51;4.60;99.90
947;DHT22;460;48.734;9.152;2023-11-18T05:32:21;4.70;99.90
947;DHT22;460;48.734;9.152;2023-11-18T05:34:49;4.70;99.90
947;DHT22;460;48.734;9.152;2023-11-18T05:37:16;4.60;99.90
947;DHT22;460;48.734;9.152;2023-11-18T05:39:43;4.70;99.90
947;DHT22;460;48.734;9.152;2023-11-18T05:42:11;4.80;99.90
947;DHT22;460;48.734;9.152;2023-11-18T05:44:38;4.70;99.90
947;DHT22;460;48.734;9.152;2023-11-18T05:47:05;4.70;99.90
947;DHT22;460;48.734;9.152;2023-11-18T05:49:33;4.70;99.90
947;DHT22;460;48.734;9.152;2023-11-18T05:52:00;4.70;99.90
947;DHT22;460;48.734;9.152;2023-11-18T05:54:27;4.60;99.90
947;DHT22;460;48.734;9.152;2023-11-18T05:56:54;4.60;99.90
947;DHT22;460;48.734;9.152;2023-11-18T05:59:21;4.60;99.90
947;DHT22;460;48.734;9.152;2023-11-18T06:01:49;4.60;99.90
947;DHT22;460;48.734;9.152;2023-11-18T06:04:16;4.50;99.90
947;DHT22;460;48.734;9.152;2023-11-18T06:06:44;4.50;99.90
947;DHT22;460;48.734;9.152;2023-11-18T06:09:12;4.50;99.90
947;DHT22;460;48.734;9.152;2023-11-18T06:11:46;4.50;99.90
947;DHT22;460;48.734;9.152;2023-11-18T06:14:15;4.50;99.90
947;DHT22;460;48.734;9.152;2023-11-18T06:16:42;4.40;99.90
947;DHT22;460;48.734;9.152;2023-11-18T06:19:09;4.40;99.90
947;DHT22;460;48.734;9.152;2023-11-18T06:21:36;4.40;99.90
947;DHT22;460;48.734;9.152;2023-11-18T06:24:05;4.30;99.90
947;DHT22;460;48.734;9.152;2023-11-18T06:26:32;4.30;99.90
947;DHT22;460;48.734;9.152;2023-11-18T06:29:02;4.30;99.90
947;DHT22;460;48.734;9.152;2023-11-18T06:31:29;4.20;99.90
947;DHT22;460;48.734;9.152;2023-11-18T06:33:56;4.30;99.90
947;DHT22;460;48.734;9.152;2023-11-18T06:36:23;4.20;99.90
947;DHT22;460;48.734;9.152;2023-11-18T06:38:52;4.20;99.90
947;DHT22;460;48.734;9.152;2023-11-18T06:41:23;4.20;99.90
947;DHT22;460;48.734;9.152;2023-11-18T06:43:51;4.20;99.90
947;DHT22;460;48.734;9.152;2023-11-18T06:46:23;4.10;99.90
947;DHT22;460;48.734;9.152;2023-11-18T06:48:51;4.10;99.90
947;DHT22;460;48.734;9.152;2023-11-18T06:51:19;4.20;99.90
947;DHT22;460;48.734;9.152;2023-11-18T06:53:49;4.20;99.90
947;DHT22;460;48.734;9.152;2023-11-18T06:56:16;4.20;99.90
947;DHT22;460;48.734;9.152;2023-11-18T06:58:44;4.30;99.90
947;DHT22;460;48.734;9.152;2023-11-18T07:01:13;4.20;99.90
947;DHT22;460;48.734;9.152;2023-11-18T07:03:40;4.10;99.90
947;DHT22;460;48.734;9.152;2023-11-18T07:06:08;4.10;99.90
947;DHT22;460;48.734;9.152;2023-11-18T07:08:35;4.30;99.90
947;DHT22;460;48.734;9.152;2023-11-18T07:11:02;4.30;99.90
947;DHT22;460;48.734;9.152;2023-11-18T07:13:29;4.30;99.90
947;DHT22;460;48.734;9.152;2023-11-18T07:15:57;4.30;99.90
947;DHT22;460;48.734;9.152;2023-11-18T07:18:24;4.30;99.90
947;DHT22;460;48.734;9.152;2023-11-18T07:20:51;4.40;99.90
947;DHT22;460;48.734;9.152;2023-11-18T07:23:18;4.50;99.90
947;DHT22;460;48.734;9.152;2023-11-18T07:25:45;4.50;99.90
947;DHT22;460;48.734;9.152;2023-11-18T07:28:12;4.60;99.90
947;DHT22;460;48.734;9.152;2023-11-18T07:30:41;4.70;99.90
947;DHT22;460;48.734;9.152;2023-11-18T07:33:09;4.70;99.90
947;DHT22;460;48.734;9.152;2023-11-18T07:35:36;4.70;99.90
947;DHT22;460;48.734;9.152;2023-11-18T07:38:03;4.70;99.90
947;DHT22;460;48.734;9.152;2023-11-18T07:40:32;4.90;99.90
947;DHT22;460;48.734;9.152;2023-11-18T07:42:59;4.90;99.90
947;DHT22;460;48.734;9.152;2023-11-18T07:45:27;4.90;99.90
947;DHT22;460;48.734;9.152;2023-11-18T07:47:54;5.00;99.90
947;DHT22;460;48.734;9.152;2023-11-18T07:50:22;5.00;99.90
947;DHT22;460;48.734;9.152;2023-11-18T07:52:49;5.10;99.90
947;DHT22;460;48.734;9.152;2023-11-18T07:55:16;5.10;99.90
947;DHT22;460;48.734;9.152;2023-11-18T07:57:44;5.10;99.90
947;DHT22;460;48.734;9.152;2023-11-18T08:00:12;5.20;99.90
947;DHT22;460;48.734;9.152;2023-11-18T08:02:40;5.20;99.90
947;DHT22;460;48.734;9.152;2023-11-18T08:05:07;5.10;99.90
947;DHT22;460;48.734;9.152;2023-11-18T08:07:35;5.10;99.90
947;DHT22;460;48.734;9.152;2023-11-18T08:10:04;5.20;99.90
947;DHT22;460;48.734;9.152;2023-11-18T08:12:31;5.30;99.90
947;DHT22;460;48.734;9.152;2023-11-18T08:14:59;5.30;99.90
947;DHT22;460;48.734;9.152;2023-11-18T08:17:26;5.50;99.90
947;DHT22;460;48.734;9.152;2023-11-18T08:19:53;5.50;99.90
947;DHT22;460;48.734;9.152;2023-11-18T08:22:21;5.50;99.90
947;DHT22;460;48.734;9.152;2023-11-18T08:24:50;5.50;99.90
947;DHT22;460;48.734;9.152;2023-11-18T08:27:17;5.50;99.90
947;DHT22;460;48.734;9.152;2023-11-18T08:29:44;5.60;99.90
947;DHT22;460;48.734;9.152;2023-11-18T08:32:14;5.60;99.90
947;DHT22;460;48.734;9.152;2023-11-18T08:34:41;5.70;99.90
947;DHT22;460;48.734;9.152;2023-11-18T08:37:08;5.70;99.90
947;DHT22;460;48.734;9.152;2023-11-18T08:39:35;5.80;99.90
947;DHT22;460;48.734;9.152;2023-11-18T08:42:03;5.80;99.90
947;DHT22;460;48.734;9.152;2023-11-18T08:44:33;5.80;99.90
947;DHT22;460;48.734;9.152;2023-11-18T08:46:59;5.80;99.90
947;DHT22;460;48.734;9.152;2023-11-18T08:49:31;5.70;99.90
947;DHT22;460;48.734;9.152;2023-11-18T08:51:59;5.80;99.90
947;DHT22;460;48.734;9.152;2023-11-18T08:54:27;5.80;99.90
947;DHT22;460;48.734;9.152;2023-11-18T08:57:04;5.90;99.90
947;DHT22;460;48.734;9.152;2023-11-18T08:59:45;6.00;99.90
947;DHT22;460;48.734;9.152;2023-11-18T09:02:11;6.00;99.90
947;DHT22;460;48.734;9.152;2023-11-18T09:04:41;6.00;99.90
947;DHT22;460;48.734;9.152;2023-11-18T09:07:09;5.90;99.90
947;DHT22;460;48.734;9.152;2023-11-18T09:09:36;5.90;99.90
947;DHT22;460;48.734;9.152;2023-11-18T09:12:07;5.90;99.90
947;DHT22;460;48.734;9.152;2023-11-18T09:14:34;5.90;99.90
947;DHT22;460;48.734;9.152;2023-11-18T09:17:01;6.00;99.90
947;DHT22;460;48.734;9.152;2023-11-18T09:19:28;6.10;99.90
947;DHT22;460;48.734;9.152;2023-11-18T09:21:55;6.20;99.90
947;DHT22;460;48.734;9.152;2023-11-18T09:24:22;6.20;99.90
947;DHT22;460;48.734;9.152;2023-11-18T09:26:51;6.10;99.90
947;DHT22;460;48.734;9.152;2023-11-18T09:29:19;5.90;99.90
947;DHT22;460;48.734;9.152;2023-11-18T09:31:49;6.10;99.90
947;DHT22;460;48.734;9.152;2023-11-18T09:34:18;6.00;99.90
947;DHT22;460;48.734;9.152;2023-11-18T09:36:52;6.10;99.90
947;DHT22;460;48.734;9.152;2023-11-18T09:39:19;6.20;99.90
947;DHT22;460;48.734;9.152;2023-11-18T09:42:04;6.40;99.90
947;DHT22;460;48.734;9.152;2023-11-18T09:44:36;6.50;99.90
947;DHT22;460;48.734;9.152;2023-11-18T09:47:04;6.60;99.90
947;DHT22;460;48.734;9.152;2023-11-18T09:49:40;6.70;99.90
947;DHT22;460;48.734;9.152;2023-11-18T09:52:16;6.80;99.90
947;DHT22;460;48.734;9.152;2023-11-18T09:54:50;6.90;99.90
947;DHT22;460;48.734;9.152;2023-11-18T09:57:23;6.80;99.90
947;DHT22;460;48.734;9.152;2023-11-18T09:59:58;6.90;99.90
947;DHT22;460;48.734;9.152;2023-11-18T10:02:38;7.00;99.90
947;DHT22;460;48.734;9.152;2023-11-18T10:05:06;7.10;99.90
947;DHT22;460;48.734;9.152;2023-11-18T10:07:38;7.10;99.90
947;DHT22;460;48.734;9.152;2023-11-18T10:10:07;7.10;99.90
947;DHT22;460;48.734;9.152;2023-11-18T10:12:40;7.20;99.90
947;DHT22;460;48.734;9.152;2023-11-18T10:15:11;7.20;99.90
947;DHT22;460;48.734;9.152;2023-11-18T10:17:42;7.30;99.90
947;DHT22;460;48.734;9.152;2023-11-18T10:20:21;7.40;99.90
947;DHT22;460;48.734;9.152;2023-11-18T10:23:05;7.50;99.90
947;DHT22;460;48.734;9.152;2023-11-18T10:25:32;7.60;99.90
947;DHT22;460;48.734;9.152;2023-11-18T10:28:01;7.50;99.90
947;DHT22;460;48.734;9.152;2023-11-18T10:30:30;7.60;99.90
947;DHT22;460;48.734;9.152;2023-11-18T10:32:58;7.60;99.90
947;DHT22;460;48.734;9.152;2023-11-18T10:35:31;7.50;99.90
947;DHT22;460;48.734;9.152;2023-11-18T10:38:01;7.60;99.90
947;DHT22;460;48.734;9.152;2023-11-18T10:40:31;7.70;99.90
947;DHT22;460;48.734;9.152;2023-11-18T10:43:00;7.60;99.90
947;DHT22;460;48.734;9.152;2023-11-18T10:45:32;7.60;99.90
947;DHT22;460;48.734;9.152;2023-11-18T10:47:59;7.60;99.90
947;DHT22;460;48.734;9.152;2023-11-18T10:50:26;7.60;99.90
947;DHT22;460;48.734;9.152;2023-11-18T10:52:57;7.70;99.90
947;DHT22;460;48.734;9.152;2023-11-18T10:55:34;7.80;99.90
947;DHT22;460;48.734;9.152;2023-11-18T10:58:02;7.80;99.90
947;DHT22;460;48.734;9.152;2023-11-18T11:00:29;7.90;99.90
947;DHT22;460;48.734;9.152;2023-11-18T11:03:13;7.90;99.90
947;DHT22;460;48.734;9.152;2023-11-18T11:05:40;7.90;99.90
947;DHT22;460;48.734;9.152;2023-11-18T11:08:14;7.90;99.90
947;DHT22;460;48.734;9.152;2023-11-18T11:10:42;7.90;99.90
947;DHT22;460;48.734;9.152;2023-11-18T11:13:09;7.70;99.90
947;DHT22;460;48.734;9.152;2023-11-18T11:15:41;7.80;99.90
947;DHT22;460;48.734;9.152;2023-11-18T11:18:12;7.80;99.90
947;DHT22;460;48.734;9.152;2023-11-18T11:20:49;7.90;99.90
947;DHT22;460;48.734;9.152;2023-11-18T11:23:21;7.90;99.90
947;DHT22;460;48.734;9.152;2023-11-18T11:26:01;8.00;99.90
947;DHT22;460;48.734;9.152;2023-11-18T11:28:40;8.00;99.90
947;DHT22;460;48.734;9.152;2023-11-18T11:31:15;8.10;99.90
947;DHT22;460;48.734;9.152;2023-11-18T11:33:49;8.10;99.90
947;DHT22;460;48.734;9.152;2023-11-18T11:36:21;8.10;99.90
947;DHT22;460;48.734;9.152;2023-11-18T11:38:53;8.20;99.90
947;DHT22;460;48.734;9.152;2023-11-18T11:41:21;8.20;99.90
947;DHT22;460;48.734;9.152;2023-11-18T11:43:52;8.30;99.90
947;DHT22;460;48.734;9.152;2023-11-18T11:46:25;8.20;99.90
947;DHT22;460;48.734;9.152;2023-11-18T11:49:00;8.30;99.90
947;DHT22;460;48.734;9.152;2023-11-18T11:51:40;8.20;99.90
947;DHT22;460;48.734;9.152;2023-11-18T11:54:12;8.20;99.90
947;DHT22;460;48.734;9.152;2023-11-18T11:56:42;8.20;99.90
947;DHT22;460;48.734;9.152;2023-11-18T11:59:09;8.20;99.90
947;DHT22;460;48.734;9.152;2023-11-18T12:01:37;8.20;99.90
947;DHT22;460;48.734;9.152;2023-11-18T12:04:09;8.30;99.90
947;DHT22;460;48.734;9.152;2023-11-18T12:06:46;8.20;99.90
947;DHT22;460;48.734;9.152;2023-11-18T12:09:18;8.30;99.90
947;DHT22;460;48.734;9.152;2023-11-18T12:11:46;8.30;99.90
947;DHT22;460;48.734;9.152;2023-11-18T12:14:15;8.20;99.90
947;DHT22;460;48.734;9.152;2023-11-18T12:17:02;8.20;99.90
947;DHT22;460;48.734;9.152;2023-11-18T12:19:35;8.30;99.90
947;DHT22;460;48.734;9.152;2023-11-18T12:22:20;8.20;99.90
947;DHT22;460;48.734;9.152;2023-11-18T12:28:07;8.20;99.90
947;DHT22;460;48.734;9.152;2023-11-18T12:30:45;8.20;99.90
947;DHT22;460;48.734;9.152;2023-11-18T12:34:00;8.00;99.90
947;DHT22;460;48.734;9.152;2023-11-18T12:36:53;8.00;99.90
947;DHT22;460;48.734;9.152;2023-11-18T12:40:09;8.00;99.90
947;DHT22;460;48.734;9.152;2023-11-18T12:42:59;8.10;99.90
947;DHT22;460;48.734;9.152;2023-11-18T12:46:12;8.20;99.90
947;DHT22;460;48.734;9.152;2023-11-18T12:48:47;8.10;99.90
947;DHT22;460;48.734;9.152;2023-11-18T12:51:17;8.00;99.90
947;DHT22;460;48.734;9.152;2023-11-18T12:53:49;8.00;99.90
947;DHT22;460;48.734;9.152;2023-11-18T12:56:19;7.90;99.90
947;DHT22;460;48.734;9.152;2023-11-18T12:58:46;8.00;99.90
947;DHT22;460;48.734;9.152;2023-11-18T13:01:13;8.00;99.90
947;DHT22;460;48.734;9.152;2023-11-18T13:03:41;8.00;99.90
947;DHT22;460;48.734;9.152;2023-11-18T13:06:08;7.80;99.90
947;DHT22;460;48.734;9.152;2023-11-18T13:08:37;7.80;99.90
947;DHT22;460;48.734;9.152;2023-11-18T13:11:06;7.80;99.90
947;DHT22;460;48.734;9.152;2023-11-18T13:13:38;7.80;99.90
947;DHT22;460;48.734;9.152;2023-11-18T13:16:06;7.90;99.90
947;DHT22;460;48.734;9.152;2023-11-18T13:18:42;7.80;99.90
947;DHT22;460;48.734;9.152;2023-11-18T13:21:13;7.80;99.90
947;DHT22;460;48.734;9.152;2023-11-18T13:23:41;7.80;99.90
947;DHT22;460;48.734;9.152;2023-11-18T13:26:09;7.80;99.90
947;DHT22;460;48.734;9.152;2023-11-18T13:28:37;7.80;99.90
947;DHT22;460;48.734;9.152;2023-11-18T13:31:05;7.90;99.90
947;DHT22;460;48.734;9.152;2023-11-18T13:33:37;7.90;99.90
947;DHT22;460;48.734;9.152;2023-11-18T13:36:05;7.80;99.90
947;DHT22;460;48.734;9.152;2023-11-18T13:38:35;7.70;99.90
947;DHT22;460;48.734;9.152;2023-11-18T13:41:02;7.80;99.90
947;DHT22;460;48.734;9.152;2023-11-18T13:43:42;7.90;99.90
947;DHT22;460;48.734;9.152;2023-11-18T13:46:12;7.80;99.90
947;DHT22;460;48.734;9.152;2023-11-18T13:48:39;7.80;99.90
947;DHT22;460;48.734;9.152;2023-11-18T13:51:08;7.80;99.90
947;DHT22;460;48.734;9.152;2023-11-18T13:53:38;7.90;99.90
947;DHT22;460;48.734;9.152;2023-11-18T13:56:06;7.80;99.90
947;DHT22;460;48.734;9.152;2023-11-18T13:58:34;7.80;99.90
947;DHT22;460;48.734;9.152;2023-11-18T14:01:05;7.80;99.90
947;DHT22;460;48.734;9.152;2023-11-18T14:03:32;7.70;99.90
947;DHT22;460;48.734;9.152;2023-11-18T14:05:59;7.70;99.90
947;DHT22;460;48.734;9.152;2023-11-18T14:08:27;7.70;99.90
947;DHT22;460;48.734;9.152;2023-11-18T14:10:55;7.70;99.90
947;DHT22;460;48.734;9.152;2023-11-18T14:13:21;7.70;99.90
947;DHT22;460;48.734;9.152;2023-11-18T14:15:48;7.70;99.90
947;DHT22;460;48.734;9.152;2023-11-18T14:18:22;7.80;99.90
947;DHT22;460;48.734;9.152;2023-11-18T14:20:48;7.70;99.90
947;DHT22;460;48.734;9.152;2023-11-18T14:23:16;7.70;99.90
947;DHT22;460;48.734;9.152;2023-11-18T14:25:44;7.80;99.90
947;DHT22;460;48.734;9.152;2023-11-18T14:28:11;7.70;99.90
947;DHT22;460;48.734;9.152;2023-11-18T14:30:38;7.80;99.90
947;DHT22;460;48.734;9.152;2023-11-18T14:33:05;7.70;99.90
947;DHT22;460;48.734;9.152;2023-11-18T14:35:33;7.60;99.90
947;DHT22;460;48.734;9.152;2023-11-18T14:38:00;7.60;99.90
947;DHT22;460;48.734;9.152;2023-11-18T14:40:27;7.50;99.90
947;DHT22;460;48.734;9.152;2023-11-18T14:42:55;7.60;99.90
947;DHT22;460;48.734;9.152;2023-11-18T14:45:22;7.60;99.90
947;DHT22;460;48.734;9.152;2023-11-18T14:47:49;7.60;99.90
947;DHT22;460;48.734;9.152;2023-11-18T14:50:19;7.70;99.90
947;DHT22;460;48.734;9.152;2023-11-18T14:52:47;7.70;99.90
947;DHT22;460;48.734;9.152;2023-11-18T14:55:17;7.60;99.90
947;DHT22;460;48.734;9.152;2023-11-18T14:57:44;7.60;99.90
947;DHT22;460;48.734;9.152;2023-11-18T15:00:13;7.60;99.90
947;DHT22;460;48.734;9.152;2023-11-18T15:02:46;7.60;99.90
947;DHT22;460;48.734;9.152;2023-11-18T15:05:14;7.60;99.90
947;DHT22;460;48.734;9.152;2023-11-18T15:07:44;7.50;99.90
947;DHT22;460;48.734;9.152;2023-11-18T15:10:15;7.50;99.90
947;DHT22;460;48.734;9.152;2023-11-18T15:12:45;7.50;99.90
947;DHT22;460;48.734;9.152;2023-11-18T15:15:12;7.40;99.90
947;DHT22;460;48.734;9.152;2023-11-18T15:17:44;7.40;99.90
947;DHT22;460;48.734;9.152;2023-11-18T15:20:11;7.40;99.90
947;DHT22;460;48.734;9.152;2023-11-18T15:22:40;7.40;99.90
947;DHT22;460;48.734;9.152;2023-11-18T15:25:10;7.50;99.90
947;DHT22;460;48.734;9.152;2023-11-18T15:27:42;7.50;99.90
947;DHT22;460;48.734;9.152;2023-11-18T15:30:12;7.60;99.90
947;DHT22;460;48.734;9.152;2023-11-18T15:32:40;7.50;99.90
947;DHT22;460;48.734;9.152;2023-11-18T15:35:08;7.50;99.90
947;DHT22;460;48.734;9.152;2023-11-18T15:37:36;7.50;99.90
947;DHT22;460;48.734;9.152;2023-11-18T15:40:05;7.40;99.90
947;DHT22;460;48.734;9.152;2023-11-18T15:42:41;7.40;99.90
947;DHT22;460;48.734;9.152;2023-11-18T15:45:09;7.40;99.90
947;DHT22;460;48.734;9.152;2023-11-18T15:47:37;7.50;99.90
947;DHT22;460;48.734;9.152;2023-11-18T15:50:05;7.40;99.90
947;DHT22;460;48.734;9.152;2023-11-18T15:52:33;7.40;99.90
947;DHT22;460;48.734;9.152;2023-11-18T15:55:01;7.30;99.90
947;DHT22;460;48.734;9.152;2023-11-18T15:57:36;7.40;99.90
947;DHT22;460;48.734;9.152;2023-11-18T16:00:05;7.40;99.90
947;DHT22;460;48.734;9.152;2023-11-18T16:02:34;7.40;99.90
947;DHT22;460;48.734;9.152;2023-11-18T16:05:01;7.50;99.90
947;DHT22;460;48.734;9.152;2023-11-18T16:07:29;7.50;99.90
947;DHT22;460;48.734;9.152;2023-11-18T16:09:55;7.60;99.90
947;DHT22;460;48.734;9.152;2023-11-18T16:12:24;7.50;99.90
947;DHT22;460;48.734;9.152;2023-11-18T16:14:54;7.50;99.90
947;DHT22;460;48.734;9.152;2023-11-18T16:17:22;7.50;99.90
947;DHT22;460;48.734;9.152;2023-11-18T16:19:49;7.40;99.90
947;DHT22;460;48.734;9.152;2023-11-18T16:22:16;7.40;99.90
947;DHT22;460;48.734;9.152;2023-11-18T16:24:43;7.40;99.90
947;DHT22;460;48.734;9.152;2023-11-18T16:27:10;7.40;99.90
947;DHT22;460;48.734;9.152;2023-11-18T16:29:36;7.40;99.90
947;DHT22;460;48.734;9.152;2023-11-18T16:32:04;7.30;99.90
947;DHT22;460;48.734;9.152;2023-11-18T16:34:32;7.20;99.90
947;DHT22;460;48.734;9.152;2023-11-18T16:36:59;7.30;99.90
947;DHT22;460;48.734;9.152;2023-11-18T16:39:27;7.20;99.90
947;DHT22;460;48.734;9.152;2023-11-18T16:41:54;7.20;99.90
947;DHT22;460;48.734;9.152;2023-11-18T16:44:21;7.30;99.90
947;DHT22;460;48.734;9.152;2023-11-18T16:46:48;7.30;99.90
947;DHT22;460;48.734;9.152;2023-11-18T16:49:15;7.20;99.90
947;DHT22;460;48.734;9.152;2023-11-18T16:51:44;7.30;99.90
947;DHT22;460;48.734;9.152;2023-11-18T16:54:11;7.30;99.90
947;DHT22;460;48.734;9.152;2023-11-18T16:56:38;7.30;99.90
947;DHT22;460;48.734;9.152;2023-11-18T16:59:04;7.30;99.90
947;DHT22;460;48.734;9.152;2023-11-18T17:01:31;7.30;99.90
947;DHT22;460;48.734;9.152;2023-11-18T17:03:58;7.40;99.90
947;DHT22;460;48.734;9.152;2023-11-18T17:06:25;7.40;99.90
947;DHT22;460;48.734;9.152;2023-11-18T17:08:53;7.30;99.90